Tlemcen Zenata, Algeria
Current Conditions -  °F | °C
As of 6:30 PM on Friday 31 Oct 2014 (Local Time) from DAON Reporting Station
Clear Clear  
Wind Chill: 68°   Ceiling: Unl
Heat Index: 68°   Visibility: 6mi
Dew Point: 54°   Wind: 6mph
Humidity: 60%   Direction: 360°N
Pressure: 30.15"   Gusts: NA
Location:  35.01°N, 1.46°W
Report Text: DAON 311730Z 36005KT CAVOK 20/12 Q1021
Loading
Personal Weather Stations






























Interactive Weather Map
Tropical Storm Tracking
New forecast layout! Learn more

10-Day Weather Forecast

Advertisements
Track Severe Weather on mobile